Time;durP1;ratioP1;P1;durP2;ratioP2;P2;SDS_P1;SDS_P2;PMS_P1;PMS_P2;Temp;Humidity;BMP_temperature;BMP_pressure;BME280_temperature;BME280_humidity;BME280_pressure;Samples;Min_cycle;Max_cycle;Signal;HPM_P1;HPM_P2
2021/10/06 00:00:26;;;;;;;13.30;12.13;;;;;;;30.28;75.69;100510.25;5088661;27;66331;-34
2021/10/06 00:02:57;;;;;;;13.82;12.35;;;;;;;30.28;75.75;100504.84;5094892;27;71209;-34
2021/10/06 00:05:29;;;;;;;;;;;;;;;30.05;76.05;100515.44;5088204;27;65028;-35
2021/10/06 00:08:00;;;;;;;14.68;13.57;;;;;;;30.24;75.32;100511.75;5095041;27;70249;-35
2021/10/06 00:10:31;;;;;;;15.50;14.00;;;;;;;30.27;75.64;100519.41;5092338;27;68152;-35
2021/10/06 00:13:02;;;;;;;14.90;13.63;;;;;;;30.28;75.33;100515.66;5071212;27;68759;-35
2021/10/06 00:15:36;;;;;;;15.68;14.27;;;;;;;29.97;74.98;100477.88;5092659;27;66532;-35
2021/10/06 00:18:09;;;;;;;22.58;15.40;;;;;;;30.16;74.88;100514.72;5090638;27;70567;-35
2021/10/06 00:20:50;;;;;;;14.32;13.07;;;;;;;30.19;75.61;100516.97;5083679;27;66356;-34
2021/10/06 00:23:36;;;;;;;15.15;13.63;;;;;;;30.20;75.43;100526.75;5091906;27;69613;-35
2021/10/06 00:26:26;;;;;;;20.63;13.13;;;;;;;30.20;75.34;100524.06;5029357;27;65403;-35
2021/10/06 00:29:18;;;;;;;13.10;12.20;;;;;;;30.23;75.44;100523.63;5065294;27;70021;-35
2021/10/06 00:32:14;;;;;;;14.63;13.13;;;;;;;30.24;75.26;100541.50;5091799;27;66752;-35
2021/10/06 00:35:17;;;;;;;17.38;12.73;;;;;;;29.95;75.68;100485.38;5075853;27;70606;-35
2021/10/06 00:38:19;;;;;;;15.07;12.88;;;;;;;29.93;75.26;100495.63;5084041;27;66007;-35
2021/10/06 00:41:16;;;;;;;16.17;14.48;;;;;;;30.23;75.94;100545.28;5082661;27;69764;-35
2021/10/06 00:44:27;;;;;;;15.23;14.07;;;;;;;30.25;75.93;100548.56;5087874;27;66190;-35
2021/10/06 00:47:20;;;;;;;15.25;13.65;;;;;;;29.94;75.70;100492.66;5016648;27;70273;-34
2021/10/06 00:50:21;;;;;;;14.00;12.88;;;;;;;30.26;75.43;100546.72;5086280;27;65284;-35
2021/10/06 00:53:15;;;;;;;14.52;13.00;;;;;;;30.30;75.62;100547.91;5081030;27;71021;-35
2021/10/06 00:55:59;;;;;;;13.30;12.07;;;;;;;30.33;75.12;100560.16;5055443;27;65813;-35
2021/10/06 01:03:21;;;;;;;19.08;12.50;;;;;;;30.23;75.42;100560.69;5090210;27;65416;-35
2021/10/06 01:06:41;;;;;;;14.68;13.20;;;;;;;30.24;75.16;100557.75;5055998;27;69469;-35
2021/10/06 01:09:54;;;;;;;15.13;13.63;;;;;;;30.03;75.61;100518.41;5084621;27;65290;-35
2021/10/06 01:12:45;;;;;;;14.95;13.48;;;;;;;30.33;75.34;100562.84;5074554;27;70888;-35
2021/10/06 01:16:02;;;;;;;15.43;14.05;;;;;;;30.32;75.23;100566.63;5084617;27;65811;-35
2021/10/06 01:18:50;;;;;;;14.88;13.60;;;;;;;30.34;75.46;100580.75;5057560;27;70126;-35
2021/10/06 01:21:53;;;;;;;14.75;13.35;;;;;;;30.22;75.21;100553.59;5081353;27;66214;-35
2021/10/06 01:25:02;;;;;;;15.57;13.98;;;;;;;30.36;75.91;100582.19;5046626;27;70278;-36
2021/10/06 01:28:06;;;;;;;14.57;13.32;;;;;;;30.35;76.14;100583.22;5049091;27;66092;-33
2021/10/06 01:31:00;;;;;;;14.02;13.02;;;;;;;30.37;75.81;100588.41;5067455;27;69573;-35
2021/10/06 01:34:05;;;;;;;15.18;13.90;;;;;;;30.31;75.63;100586.59;5073431;27;66361;-34
2021/10/06 01:37:19;;;;;;;14.25;13.27;;;;;;;30.39;75.69;100586.31;5085443;27;70138;-35
2021/10/06 01:40:22;;;;;;;14.20;12.95;;;;;;;30.34;75.62;100595.13;5088205;27;67113;-34
2021/10/06 01:43:33;;;;;;;14.25;13.00;;;;;;;30.22;75.56;100561.72;5089381;27;70550;-34
2021/10/06 01:47:27;;;;;;;15.05;13.60;;;;;;;30.34;75.75;100587.00;5085159;27;66567;-34
2021/10/06 01:50:32;;;;;;;20.75;18.65;;;;;;;30.35;74.42;100588.66;5088816;27;69920;-35
2021/10/06 01:54:10;;;;;;;20.65;17.77;;;;;;;30.23;74.60;100596.69;5037866;28;65693;-35
2021/10/06 01:56:49;;;;;;;22.75;20.65;;;;;;;30.21;74.60;100582.50;5015010;28;70182;-35
2021/10/06 01:59:55;;;;;;;25.13;20.55;;;;;;;30.19;74.45;100587.31;5038792;28;65959;-35
2021/10/06 02:03:14;;;;;;;21.77;19.65;;;;;;;30.16;74.26;100587.75;5030840;28;70192;-35
2021/10/06 02:06:03;;;;;;;19.10;17.25;;;;;;;30.08;73.97;100584.50;4994301;28;64953;-34
2021/10/06 02:09:04;;;;;;;20.23;18.15;;;;;;;29.98;74.29;100563.38;5043268;28;70217;-35
2021/10/06 02:12:23;;;;;;;21.65;19.58;;;;;;;30.04;74.56;100576.03;5002780;28;66100;-35
2021/10/06 02:16:13;;;;;;;21.95;19.77;;;;;;;30.06;73.72;100577.44;5042105;28;69862;-35
2021/10/06 02:19:31;;;;;;;23.17;20.80;;;;;;;30.05;73.84;100577.66;5041240;28;66037;-35
2021/10/06 02:22:23;;;;;;;23.30;21.15;;;;;;;30.05;73.46;100574.97;4974480;28;69189;-35
2021/10/06 02:25:45;;;;;;;22.42;20.50;;;;;;;30.03;73.48;100563.53;4977098;28;66978;-35
2021/10/06 02:28:58;;;;;;;23.15;20.92;;;;;;;30.06;72.89;100579.31;5004132;28;70053;-36
2021/10/06 02:32:01;;;;;;;24.17;21.83;;;;;;;29.93;73.56;100552.41;5002833;28;66471;-35
2021/10/06 02:35:27;;;;;;;27.60;22.48;;;;;;;30.10;73.86;100569.72;5024517;28;71590;-35
2021/10/06 02:39:04;;;;;;;26.95;24.08;;;;;;;30.16;73.26;100559.88;5034116;28;65270;-34
2021/10/06 02:42:23;;;;;;;25.55;23.02;;;;;;;30.16;74.08;100559.88;5028431;28;69932;-35
2021/10/06 02:45:39;;;;;;;31.25;26.15;;;;;;;30.19;73.10;100549.44;4989282;28;66567;-35
2021/10/06 02:49:22;;;;;;;29.85;25.58;;;;;;;30.13;73.27;100522.47;5018225;28;69966;-36
2021/10/06 02:52:40;;;;;;;27.27;24.45;;;;;;;30.20;73.09;100545.69;5017424;28;66052;-35
2021/10/06 02:55:31;;;;;;;28.60;25.55;;;;;;;30.28;72.66;100540.03;5025172;28;70096;-35
2021/10/06 02:58:20;;;;;;;28.70;25.65;;;;;;;29.96;72.67;100478.94;5010135;28;65948;-35
2021/10/06 03:01:18;;;;;;;;;;;;;;;30.11;73.34;100535.38;5086075;27;70442;-35
2021/10/06 03:04:40;;;;;;;31.30;28.00;;;;;;;30.32;72.64;100526.03;5086000;27;65850;-37
2021/10/06 03:08:17;;;;;;;29.63;26.05;;;;;;;30.32;72.20;100520.63;5090425;27;70420;-35
2021/10/06 03:11:47;;;;;;;24.20;21.63;;;;;;;30.28;71.38;100525.63;5091903;27;65886;-35
2021/10/06 03:14:43;;;;;;;20.83;19.02;;;;;;;30.30;70.27;100517.31;5094198;27;70485;-36
2021/10/06 03:17:27;;;;;;;20.48;18.15;;;;;;;30.11;70.35;100490.22;5069867;27;65098;-35
2021/10/06 03:20:19;;;;;;;21.45;19.33;;;;;;;30.26;70.52;100515.06;5093550;27;70141;-35
2021/10/06 03:23:26;;;;;;;21.75;19.67;;;;;;;30.30;70.45;100501.91;5078386;27;65657;-34
2021/10/06 03:26:10;;;;;;;20.63;18.75;;;;;;;30.05;70.67;100464.06;5085283;27;70503;-34
2021/10/06 03:29:07;;;;;;;25.08;18.65;;;;;;;30.35;71.23;100507.47;5088636;27;65339;-34
2021/10/06 03:32:10;;;;;;;20.42;18.30;;;;;;;29.76;70.59;100401.56;5086718;27;68595;-35
2021/10/06 03:35:10;;;;;;;21.48;19.02;;;;;;;30.42;70.54;100496.56;5070311;27;66296;-34
2021/10/06 03:37:52;;;;;;;29.02;18.92;;;;;;;30.13;69.90;100438.59;5071914;27;70539;-34
2021/10/06 03:40:29;;;;;;;;;;;;;;;30.15;70.93;100486.03;5091304;27;65033;-34
2021/10/06 03:43:10;;;;;;;21.92;19.55;;;;;;;30.37;69.99;100485.56;5093155;27;70286;-35
2021/10/06 03:46:10;;;;;;;21.17;19.10;;;;;;;30.08;71.55;100423.03;5077954;27;65944;-34
2021/10/06 03:48:46;;;;;;;21.98;19.73;;;;;;;30.49;71.40;100478.38;5107002;27;70209;-35
2021/10/06 03:51:24;;;;;;;21.00;18.95;;;;;;;30.54;71.63;100470.41;5094466;27;65702;-35
2021/10/06 03:54:01;;;;;;;20.42;18.52;;;;;;;30.54;72.16;100464.16;5094037;27;69336;-34
2021/10/06 03:56:52;;;;;;;21.45;19.33;;;;;;;30.63;71.86;100463.59;5077108;27;65455;-34
2021/10/06 03:59:28;;;;;;;19.15;17.42;;;;;;;30.28;71.66;100407.44;5051627;27;69817;-34
2021/10/06 04:02:02;;;;;;;20.50;18.45;;;;;;;30.68;72.02;100454.81;5089970;27;66302;-34
2021/10/06 04:04:34;;;;;;;18.80;17.17;;;;;;;30.70;72.07;100447.25;5087791;27;69847;-34
2021/10/06 04:07:07;;;;;;;18.10;16.35;;;;;;;30.68;72.32;100444.78;5094927;27;66330;-35
2021/10/06 04:09:44;;;;;;;18.60;16.95;;;;;;;30.73;72.07;100436.81;5089846;27;69727;-34
2021/10/06 04:12:18;;;;;;;18.92;17.00;;;;;;;30.80;72.02;100433.22;5072480;27;66173;-35
2021/10/06 04:14:51;;;;;;;17.75;15.70;;;;;;;30.82;72.37;100433.81;5090343;27;70169;-34
2021/10/06 04:17:24;;;;;;;17.48;16.10;;;;;;;30.83;72.18;100424.63;5089480;27;66567;-35
2021/10/06 04:19:55;;;;;;;18.08;15.95;;;;;;;30.80;71.96;100416.97;5091251;27;70185;-35
2021/10/06 04:22:28;;;;;;;17.70;16.17;;;;;;;30.86;71.87;100418.75;5093532;27;66337;-35
2021/10/06 04:25:01;;;;;;;16.70;15.30;;;;;;;30.86;71.63;100410.63;5091162;27;70694;-35
2021/10/06 04:27:33;;;;;;;19.85;16.65;;;;;;;30.75;71.37;100392.44;5084466;27;66407;-35
2021/10/06 04:30:08;;;;;;;20.25;17.92;;;;;;;30.90;71.80;100404.53;5087136;27;70034;-35
2021/10/06 04:32:42;;;;;;;17.48;15.82;;;;;;;30.91;71.52;100394.50;5087614;27;66637;-35
2021/10/06 04:35:16;;;;;;;18.30;16.63;;;;;;;30.92;71.38;100397.00;5082224;27;70240;-35
2021/10/06 04:37:48;;;;;;;23.45;16.63;;;;;;;30.91;71.87;100389.91;5092273;27;66565;-35
2021/10/06 04:40:19;;;;;;;22.63;17.48;;;;;;;30.86;71.88;100380.84;5090973;27;69828;-35
2021/10/06 04:42:52;;;;;;;18.60;16.77;;;;;;;30.90;72.03;100376.63;5093169;27;66027;-35
2021/10/06 04:45:24;;;;;;;19.83;18.05;;;;;;;30.92;71.51;100375.34;5085410;27;69244;-34
2021/10/06 04:47:55;;;;;;;20.90;18.77;;;;;;;30.90;71.46;100377.44;5071921;27;66330;-35
2021/10/06 04:50:30;;;;;;;21.00;18.98;;;;;;;30.93;71.88;100366.13;5091848;27;69612;-36
2021/10/06 04:53:05;;;;;;;23.67;18.05;;;;;;;30.94;71.73;100362.34;5089300;27;65812;-35
2021/10/06 04:55:37;;;;;;;20.17;18.30;;;;;;;30.93;71.76;100357.19;5091301;27;69964;-35
2021/10/06 04:58:09;;;;;;;21.13;19.08;;;;;;;30.97;72.27;100358.34;5089790;27;66665;-35
2021/10/06 05:00:40;;;;;;;20.92;18.75;;;;;;;30.93;72.18;100343.66;5091159;27;68621;-34
2021/10/06 05:03:14;;;;;;;;;;;;;;;30.75;72.81;100349.09;5058192;27;66210;-35
2021/10/06 05:05:45;;;;;;;21.08;19.13;;;;;;;30.90;72.14;100338.69;5091908;27;69693;-36
2021/10/06 05:08:17;;;;;;;21.98;18.77;;;;;;;30.99;72.23;100341.88;5091785;27;67443;-35
2021/10/06 05:10:48;;;;;;;18.35;16.60;;;;;;;30.99;72.53;100337.28;5091112;27;69446;-35
2021/10/06 05:13:19;;;;;;;18.60;17.00;;;;;;;31.00;72.13;100335.41;5088998;27;66106;-35
2021/10/06 05:15:51;;;;;;;18.73;16.83;;;;;;;31.00;72.44;100330.81;5093329;27;69090;-35
2021/10/06 05:18:37;;;;;;;17.95;16.38;;;;;;;31.04;71.91;100329.28;5087918;27;66088;-34
2021/10/06 05:21:10;;;;;;;18.90;16.88;;;;;;;31.02;72.55;100325.16;5087096;27;69157;-34
2021/10/06 05:23:41;;;;;;;17.52;15.95;;;;;;;30.99;72.10;100312.91;5085283;27;66516;-35
2021/10/06 05:26:12;;;;;;;17.10;15.63;;;;;;;31.02;71.96;100319.75;5085366;27;70436;-35
2021/10/06 05:28:44;;;;;;;17.50;15.60;;;;;;;31.04;72.70;100320.34;5092782;27;66409;-35
2021/10/06 05:31:15;;;;;;;16.25;15.05;;;;;;;31.02;72.67;100298.06;5086169;27;70106;-35
2021/10/06 05:33:47;;;;;;;;;;;;;;;30.84;73.46;100310.69;5090106;27;65427;-35
2021/10/06 05:36:19;;;;;;;16.70;14.32;;;;;;;31.04;72.61;100296.78;5088303;27;69544;-37
2021/10/06 05:38:51;;;;;;;16.10;14.13;;;;;;;31.12;73.52;100309.13;5082839;27;65679;-35
2021/10/06 05:41:22;;;;;;;19.85;12.88;;;;;;;31.07;74.29;100307.16;5094792;27;69361;-35
2021/10/06 05:43:54;;;;;;;14.88;13.15;;;;;;;31.07;73.68;100312.56;5086836;27;65776;-37
2021/10/06 05:46:27;;;;;;;15.20;13.80;;;;;;;31.09;74.65;100309.59;5074114;27;69905;-39
2021/10/06 05:48:58;;;;;;;17.23;12.27;;;;;;;31.06;75.29;100305.47;5087674;27;66311;-36
2021/10/06 05:51:34;;;;;;;13.57;12.57;;;;;;;31.04;75.61;100304.91;5081972;27;70093;-35
2021/10/06 05:54:05;;;;;;;13.70;12.77;;;;;;;31.01;75.45;100293.69;5088335;27;65357;-35
2021/10/06 05:56:41;;;;;;;14.35;12.73;;;;;;;31.04;75.04;100291.38;5067012;27;69539;-35
2021/10/06 05:59:14;;;;;;;13.43;12.47;;;;;;;31.02;75.77;100285.34;5085639;27;66073;-35
2021/10/06 06:01:46;;;;;;;12.88;11.70;;;;;;;30.99;75.83;100277.69;5087246;27;70222;-35
2021/10/06 06:04:20;;;;;;;12.43;11.60;;;;;;;30.99;76.17;100274.19;5091584;27;65460;-36
2021/10/06 06:06:56;;;;;;;11.68;10.73;;;;;;;31.01;76.01;100275.59;5088670;27;69342;-35
2021/10/06 06:09:28;;;;;;;12.05;11.02;;;;;;;31.01;76.79;100272.88;5082335;27;65900;-36
2021/10/06 06:12:06;;;;;;;11.00;10.27;;;;;;;31.01;76.62;100264.75;5088469;27;70141;-35
2021/10/06 06:14:44;;;;;;;10.90;10.20;;;;;;;30.90;76.84;100244.75;5086222;27;65405;-34
2021/10/06 06:17:23;;;;;;;11.63;10.70;;;;;;;30.99;76.92;100257.94;5085889;27;70193;-35
2021/10/06 06:19:54;;;;;;;10.63;10.07;;;;;;;30.99;76.91;100256.03;5056618;27;65660;-35
2021/10/06 06:22:27;;;;;;;10.45;9.85;;;;;;;31.00;77.29;100246.84;5085683;27;69112;-35
2021/10/06 06:24:58;;;;;;;10.23;9.65;;;;;;;30.97;77.62;100251.91;5067637;27;65457;-35
2021/10/06 06:27:31;;;;;;;10.27;9.45;;;;;;;31.01;77.57;100247.66;5091082;27;70494;-35
2021/10/06 06:30:11;;;;;;;10.27;9.52;;;;;;;31.02;77.25;100236.59;5087148;27;66766;-36
2021/10/06 06:32:44;;;;;;;9.82;9.10;;;;;;;31.02;77.19;100247.44;5083810;27;70572;-35
2021/10/06 06:35:19;;;;;;;9.10;8.60;;;;;;;31.00;77.67;100225.16;5094104;27;65743;-37
2021/10/06 06:37:50;;;;;;;9.13;8.70;;;;;;;30.78;77.73;100188.88;5113314;27;70175;-35
2021/10/06 06:40:44;;;;;;;8.85;8.25;;;;;;;30.93;77.57;100225.31;5093354;27;65998;-34
2021/10/06 06:43:18;;;;;;;9.52;8.93;;;;;;;31.00;77.92;100217.03;5091318;27;70096;-34
2021/10/06 06:45:55;;;;;;;8.75;8.15;;;;;;;30.65;77.85;100161.00;5093197;27;66139;-35
2021/10/06 06:48:29;;;;;;;8.40;7.93;;;;;;;31.02;78.30;100212.22;5095644;27;69815;-36
2021/10/06 06:51:06;;;;;;;9.05;8.50;;;;;;;31.02;77.95;100220.34;5091805;27;65722;-35
2021/10/06 06:53:37;;;;;;;7.75;7.18;;;;;;;31.02;78.14;100211.41;5074310;27;69926;-34
2021/10/06 06:56:10;;;;;;;8.27;7.78;;;;;;;31.05;78.29;100205.50;5076130;27;67363;-35
2021/10/06 06:58:58;;;;;;;7.55;7.10;;;;;;;31.04;77.97;100206.59;5091562;27;70161;-35
2021/10/06 07:02:13;;;;;;;8.45;7.95;;;;;;;30.62;77.44;100131.72;5092564;27;67269;-35
2021/10/06 07:05:05;;;;;;;;;;;;;;;30.79;78.11;100204.09;5076538;27;68935;-36
2021/10/06 07:07:49;;;;;;;8.70;8.20;;;;;;;31.02;77.19;100187.84;5089922;27;65552;-35
2021/10/06 07:10:38;;;;;;;8.38;7.88;;;;;;;31.05;77.16;100189.25;5072716;27;69380;-36
2021/10/06 07:14:11;;;;;;;7.82;7.43;;;;;;;30.94;77.24;100186.31;5082544;27;65544;-35
2021/10/06 07:16:52;;;;;;;8.27;7.65;;;;;;;31.03;76.94;100177.81;5051563;27;70274;-36
2021/10/06 07:19:32;;;;;;;7.97;7.47;;;;;;;31.04;76.80;100172.19;5068071;27;65827;-36
2021/10/06 07:22:13;;;;;;;8.55;7.85;;;;;;;31.05;76.46;100171.13;5086893;27;70552;-36
2021/10/06 07:24:59;;;;;;;7.75;7.35;;;;;;;31.04;76.67;100161.34;5042236;27;65693;-35
2021/10/06 07:27:49;;;;;;;8.00;7.47;;;;;;;30.98;76.59;100161.47;5070541;27;69766;-35
2021/10/06 07:30:31;;;;;;;7.88;7.28;;;;;;;31.13;75.95;100180.75;5087823;27;66639;-36
2021/10/06 07:33:36;;;;;;;;;;;;;;;30.90;75.99;100176.22;5057157;27;70006;-36
2021/10/06 07:36:42;;;;;;;7.55;6.85;;;;;;;31.14;75.26;100155.31;5086039;27;66845;-37
2021/10/06 07:39:34;;;;;;;8.07;7.22;;;;;;;31.27;74.65;100170.47;5088125;27;70079;-37
2021/10/06 07:42:17;;;;;;;8.13;7.30;;;;;;;30.96;74.89;100118.38;5080277;27;66535;-36
2021/10/06 07:45:26;;;;;;;7.22;6.68;;;;;;;31.34;74.44;100165.72;5085197;27;69449;-36
2021/10/06 07:48:32;;;;;;;6.88;6.47;;;;;;;31.34;74.20;100160.31;5085874;27;66491;-36
2021/10/06 07:51:39;;;;;;;7.60;7.05;;;;;;;31.33;74.04;100158.69;5085524;27;69544;-36
2021/10/06 07:54:21;;;;;;;7.45;7.05;;;;;;;31.36;74.48;100150.91;5054612;27;66279;-37
2021/10/06 07:57:12;;;;;;;6.43;6.00;;;;;;;31.36;74.12;100141.97;5083102;27;69207;-36
2021/10/06 08:00:05;;;;;;;;;;;;;;;31.12;74.50;100152.84;5060270;27;66692;-37
2021/10/06 08:03:02;;;;;;;7.43;6.47;;;;;;;31.36;74.31;100148.19;5086753;27;70035;-36
2021/10/06 08:06:21;;;;;;;7.50;6.82;;;;;;;31.39;73.81;100141.47;5083127;27;66148;-35
2021/10/06 08:09:20;;;;;;;11.52;7.07;;;;;;;31.42;74.05;100151.00;5074624;27;69059;-36
2021/10/06 08:12:17;;;;;;;7.03;6.50;;;;;;;31.43;73.85;100142.66;5087847;27;66251;-36
2021/10/06 08:15:04;;;;;;;7.45;6.90;;;;;;;31.38;73.91;100156.09;5085651;27;69568;-37
2021/10/06 08:17:50;;;;;;;7.63;7.03;;;;;;;31.35;74.31;100156.56;5088466;27;65842;-36
2021/10/06 08:21:03;;;;;;;7.00;6.60;;;;;;;31.27;74.19;100159.66;5081463;27;70325;-37
2021/10/06 08:23:49;;;;;;;7.07;6.47;;;;;;;31.34;73.89;100160.31;5072498;27;65320;-35
2021/10/06 08:26:34;;;;;;;7.53;6.72;;;;;;;31.25;73.51;100153.63;5072538;27;70133;-35
2021/10/06 08:29:28;;;;;;;8.25;7.53;;;;;;;31.14;74.05;100139.06;5070616;27;66853;-36
2021/10/06 08:32:42;;;;;;;8.50;7.60;;;;;;;31.27;74.03;100171.31;5085133;27;70254;-36
2021/10/06 08:35:30;;;;;;;7.70;6.85;;;;;;;31.27;73.63;100156.94;5055665;27;66286;-36
2021/10/06 08:38:17;;;;;;;9.80;6.68;;;;;;;31.24;73.48;100162.84;5073628;27;70505;-35
2021/10/06 08:41:13;;;;;;;7.30;6.80;;;;;;;31.22;73.78;100167.66;5069865;27;66041;-36
2021/10/06 08:44:12;;;;;;;7.10;6.63;;;;;;;31.23;73.97;100161.16;5074342;27;69800;-37
2021/10/06 08:47:22;;;;;;;7.50;7.00;;;;;;;31.20;74.05;100157.06;5081246;27;65284;-35
2021/10/06 08:50:22;;;;;;;;;;;;;;;30.94;74.44;100155.72;5073506;27;71271;-37
2021/10/06 08:53:04;;;;;;;7.95;7.13;;;;;;;31.20;73.85;100157.06;5080982;27;66438;-36
2021/10/06 08:55:40;;;;;;;8.68;7.05;;;;;;;31.15;73.64;100141.53;5083479;27;70951;-36
2021/10/06 08:58:37;;;;;;;8.10;7.40;;;;;;;30.90;73.88;100106.63;5089065;27;65557;-36
2021/10/06 09:01:44;;;;;;;7.63;6.93;;;;;;;31.07;73.94;100160.88;5076202;27;68056;-36
2021/10/06 09:04:39;;;;;;;8.20;7.50;;;;;;;31.19;73.78;100162.72;5088108;27;65258;-36
2021/10/06 09:07:18;;;;;;;7.68;7.10;;;;;;;31.14;73.77;100166.97;5088105;27;69587;-35
2021/10/06 09:09:57;;;;;;;7.35;6.70;;;;;;;31.11;74.05;100163.91;5090838;27;65070;-36
2021/10/06 09:13:06;;;;;;;7.60;6.95;;;;;;;31.10;73.69;100160.38;5090999;27;69617;-36
2021/10/06 09:16:00;;;;;;;6.45;5.82;;;;;;;30.98;72.20;100165.03;5093563;27;66252;-35
2021/10/06 09:18:44;;;;;;;6.15;5.60;;;;;;;30.82;72.06;100163.84;5091374;27;70136;-33
2021/10/06 09:21:21;;;;;;;8.55;6.10;;;;;;;30.67;72.27;100156.19;5043059;27;65562;-33
2021/10/06 09:23:58;;;;;;;8.50;6.68;;;;;;;30.55;72.91;100162.66;5072279;27;70523;-32
2021/10/06 09:26:32;;;;;;;11.68;6.78;;;;;;;30.44;73.21;100167.00;5087844;27;65025;-35
2021/10/06 09:29:21;;;;;;;9.35;7.80;;;;;;;30.24;73.12;100162.75;5086225;27;70084;-35
2021/10/06 09:32:00;;;;;;;6.43;6.03;;;;;;;30.25;73.52;100163.56;5056739;27;65561;-33
2021/10/06 09:34:37;;;;;;;6.63;6.10;;;;;;;30.11;72.92;100152.09;5070294;27;70170;-33
2021/10/06 09:37:24;;;;;;;7.22;6.63;;;;;;;30.12;72.58;100172.69;5070842;27;67129;-33
2021/10/06 09:40:00;;;;;;;6.78;6.18;;;;;;;30.06;73.33;100165.50;5085154;27;70483;-34
2021/10/06 09:42:53;;;;;;;7.78;6.88;;;;;;;29.75;73.42;100126.84;5087743;27;65528;-34
2021/10/06 09:45:37;;;;;;;10.15;7.18;;;;;;;30.07;74.00;100183.38;5061672;27;70185;-32
2021/10/06 09:48:22;;;;;;;8.77;8.18;;;;;;;30.01;74.13;100176.22;5088203;27;66340;-33
2021/10/06 09:50:53;;;;;;;14.40;8.80;;;;;;;30.04;75.24;100178.44;5083980;27;70518;-33
2021/10/06 09:53:26;;;;;;;8.15;7.55;;;;;;;30.15;74.68;100180.34;5084707;27;65346;-32
2021/10/06 09:56:04;;;;;;;10.75;7.63;;;;;;;30.27;74.06;100183.91;5084970;27;70282;-32
2021/10/06 09:58:37;;;;;;;7.15;6.65;;;;;;;30.41;73.87;100189.13;5087075;27;66406;-32
2021/10/06 10:01:13;;;;;;;8.70;7.63;;;;;;;30.40;73.76;100176.66;5087416;27;70720;-32
2021/10/06 10:03:45;;;;;;;8.18;6.95;;;;;;;30.57;74.08;100188.44;5086798;27;65696;-32
2021/10/06 10:06:17;;;;;;;6.97;6.30;;;;;;;30.61;73.74;100195.00;5088803;27;69236;-32
2021/10/06 10:08:51;;;;;;;6.32;5.93;;;;;;;30.69;73.48;100194.66;5084696;27;65687;-32
2021/10/06 10:11:22;;;;;;;7.33;6.47;;;;;;;30.75;73.58;100194.78;5088983;27;70052;-32
2021/10/06 10:13:54;;;;;;;7.03;6.45;;;;;;;30.81;73.39;100193.84;5089493;27;65406;-32
2021/10/06 10:16:29;;;;;;;7.07;6.57;;;;;;;30.81;73.42;100189.25;5073402;27;70290;-32
2021/10/06 10:19:07;;;;;;;7.75;7.13;;;;;;;30.89;73.09;100201.63;5089519;27;65709;-33
2021/10/06 10:21:45;;;;;;;6.90;6.40;;;;;;;30.61;73.00;100145.47;5089311;27;70220;-32
2021/10/06 10:24:26;;;;;;;8.13;7.40;;;;;;;30.94;72.66;100204.47;5087535;27;65568;-33
2021/10/06 10:27:07;;;;;;;7.88;7.38;;;;;;;30.93;72.85;100197.41;5085747;27;69505;-33
2021/10/06 10:29:49;;;;;;;9.27;8.68;;;;;;;30.99;73.23;100207.28;5090122;27;66652;-33
2021/10/06 10:32:29;;;;;;;9.85;8.77;;;;;;;30.95;73.06;100206.09;5087432;27;71505;-33
2021/10/06 10:35:12;;;;;;;8.30;7.63;;;;;;;30.68;73.18;100157.00;5088184;27;66316;-33
2021/10/06 10:37:53;;;;;;;7.72;7.28;;;;;;;31.04;73.34;100212.81;5086813;27;70715;-32
2021/10/06 10:40:34;;;;;;;8.13;7.72;;;;;;;31.05;73.75;100222.56;5086390;27;67151;-35
2021/10/06 10:43:16;;;;;;;8.15;7.57;;;;;;;31.07;73.60;100223.19;5081008;27;69574;-32
2021/10/06 10:46:10;;;;;;;8.32;7.72;;;;;;;30.71;73.77;100168.19;5103453;27;64901;-32
2021/10/06 10:48:58;;;;;;;7.60;7.05;;;;;;;31.02;74.19;100223.06;5074597;27;70440;-32
2021/10/06 10:51:58;;;;;;;8.55;7.88;;;;;;;31.05;73.56;100228.00;5083596;27;66019;-33
2021/10/06 10:54:39;;;;;;;7.25;6.85;;;;;;;31.12;74.07;100228.72;5099851;27;69849;-33
2021/10/06 10:57:29;;;;;;;8.27;7.68;;;;;;;31.06;74.18;100251.31;5089506;27;65623;-32
2021/10/06 11:00:00;;;;;;;8.80;8.10;;;;;;;31.11;74.05;100237.06;5071895;27;69798;-32
2021/10/06 11:02:41;;;;;;;8.32;7.88;;;;;;;31.14;74.13;100237.41;5087847;27;65998;-32
2021/10/06 11:05:16;;;;;;;7.80;7.30;;;;;;;31.13;74.30;100235.75;5069601;27;70447;-33
2021/10/06 11:07:51;;;;;;;7.95;7.45;;;;;;;30.86;73.89;100185.84;5088589;27;66255;-33
2021/10/06 11:10:29;;;;;;;8.60;8.10;;;;;;;31.16;74.04;100240.69;5090788;27;70045;-35
2021/10/06 11:13:06;;;;;;;8.73;8.23;;;;;;;31.16;74.31;100240.69;5087731;27;66521;-34
2021/10/06 11:15:47;;;;;;;9.00;8.23;;;;;;;31.15;74.54;100241.78;5083315;27;69470;-33
2021/10/06 11:18:25;;;;;;;9.30;8.75;;;;;;;30.81;74.34;100174.91;5082253;27;66640;-33
2021/10/06 11:21:00;;;;;;;10.90;10.13;;;;;;;31.16;74.47;100250.72;5083529;27;70417;-35
2021/10/06 11:23:40;;;;;;;18.90;17.10;;;;;;;31.07;74.17;100239.44;5077399;27;66790;-35
2021/10/06 11:26:28;;;;;;;19.55;17.85;;;;;;;30.78;74.06;100207.84;5065536;27;70384;-36
2021/10/06 11:29:05;;;;;;;18.17;16.30;;;;;;;30.86;73.82;100231.91;5084913;27;65138;-36
2021/10/06 11:31:40;;;;;;;22.83;20.10;;;;;;;30.58;74.24;100197.38;5081611;27;70525;-35
2021/10/06 11:34:19;;;;;;;23.80;20.45;;;;;;;30.84;74.26;100258.38;5086443;27;65917;-35
2021/10/06 11:36:55;;;;;;;21.58;17.75;;;;;;;30.84;74.61;100269.22;5067344;27;69966;-35
2021/10/06 11:39:27;;;;;;;18.10;16.23;;;;;;;30.89;74.23;100272.03;5092514;27;65174;-35
2021/10/06 11:42:03;;;;;;;18.10;16.25;;;;;;;30.87;74.63;100269.59;5073236;27;70577;-35
2021/10/06 11:44:41;;;;;;;20.17;15.82;;;;;;;30.88;75.47;100281.22;5086008;27;66572;-34
2021/10/06 11:47:19;;;;;;;18.15;16.42;;;;;;;30.79;76.60;100277.19;5067187;27;70151;-35
2021/10/06 11:50:39;;;;;;;18.02;16.20;;;;;;;30.58;77.48;100286.69;5073000;27;66298;-35
2021/10/06 11:53:49;;;;;;;17.98;16.02;;;;;;;30.36;78.17;100256.63;5076274;27;69164;-35
2021/10/06 11:56:33;;;;;;;18.08;16.50;;;;;;;30.54;77.98;100294.47;5088752;27;65889;-35
2021/10/06 11:59:12;;;;;;;18.48;16.67;;;;;;;30.51;78.80;100294.94;5072772;27;70258;-36
2021/10/06 12:02:10;;;;;;;17.70;16.02;;;;;;;30.60;77.38;100303.53;5075355;27;66194;-35
2021/10/06 12:04:48;;;;;;;15.93;14.45;;;;;;;30.66;77.31;100308.84;5085826;27;69634;-35
2021/10/06 12:07:30;;;;;;;15.77;14.57;;;;;;;30.44;76.87;100275.25;5074779;27;65650;-35
2021/10/06 12:10:14;;;;;;;17.13;15.35;;;;;;;30.72;76.29;100304.38;5089323;27;69177;-35
2021/10/06 12:12:46;;;;;;;15.95;14.45;;;;;;;30.80;76.77;100316.78;5087178;27;66265;-35
2021/10/06 12:15:25;;;;;;;16.95;15.30;;;;;;;30.81;76.11;100313.81;5086916;27;69935;-35
2021/10/06 12:18:14;;;;;;;16.52;15.02;;;;;;;30.78;75.89;100318.84;5091845;27;66084;-35
2021/10/06 12:20:52;;;;;;;17.25;15.63;;;;;;;30.88;76.23;100325.38;5077721;27;70169;-35
2021/10/06 12:23:32;;;;;;;17.80;15.55;;;;;;;30.87;75.60;100322.91;5089966;27;67221;-35
2021/10/06 12:26:16;;;;;;;18.15;16.17;;;;;;;30.93;75.77;100332.81;5087813;27;70855;-35
2021/10/06 12:29:04;;;;;;;18.33;16.52;;;;;;;30.94;75.57;100334.47;5088144;27;66355;-35
2021/10/06 12:31:46;;;;;;;18.25;16.65;;;;;;;30.96;75.66;100343.19;5070507;27;68901;-35
2021/10/06 12:34:32;;;;;;;19.63;17.88;;;;;;;30.94;76.04;100345.28;5092463;27;65545;-35
2021/10/06 12:37:11;;;;;;;20.38;18.27;;;;;;;30.95;75.79;100349.63;5080687;27;69970;-34
2021/10/06 12:39:51;;;;;;;19.08;17.27;;;;;;;30.61;75.51;100297.06;5088962;27;65657;-36
2021/10/06 12:42:43;;;;;;;21.75;18.63;;;;;;;30.98;75.60;100357.31;5091621;27;69532;-35
2021/10/06 12:46:06;;;;;;;20.45;18.45;;;;;;;30.87;75.70;100367.06;5072295;27;66265;-34
2021/10/06 12:48:56;;;;;;;22.55;20.30;;;;;;;30.97;75.35;100377.31;5087253;27;70218;-34
2021/10/06 12:51:35;;;;;;;21.65;19.42;;;;;;;30.94;75.17;100372.38;5059026;27;66389;-34